Time;durP1;ratioP1;P1;durP2;ratioP2;P2;SDS_P1;SDS_P2;PMS_P1;PMS_P2;Temp;Humidity;BMP_temperature;BMP_pressure;BME280_temperature;BME280_humidity;BME280_pressure;Samples;Min_cycle;Max_cycle;Signal;HPM_P1;HPM_P2
2022/10/20 00:00:41;;;;;;;17.02;7.47;;;6.70;99.90;;;;;;4878843;29;20047;-82
2022/10/20 00:03:07;;;;;;;16.15;6.97;;;6.70;99.90;;;;;;4877518;29;20091;-82
2022/10/20 00:05:33;;;;;;;18.38;7.63;;;6.70;99.90;;;;;;4895151;29;20055;-82
2022/10/20 00:07:58;;;;;;;16.90;7.22;;;6.60;99.90;;;;;;4878501;29;20056;-82
2022/10/20 00:10:24;;;;;;;17.15;7.97;;;6.60;99.90;;;;;;4878377;29;20209;-82
2022/10/20 00:12:50;;;;;;;16.88;7.47;;;6.60;99.90;;;;;;4894286;29;20090;-82
2022/10/20 00:15:15;;;;;;;20.55;7.68;;;6.60;99.90;;;;;;4894645;29;20047;-82
2022/10/20 00:17:43;;;;;;;11.50;7.65;;;6.50;99.90;;;;;;4892553;29;20493;-82
2022/10/20 00:20:09;;;;;;;11.85;6.80;;;6.70;99.90;;;;;;4879043;29;20127;-82
2022/10/20 00:22:35;;;;;;;16.30;7.00;;;6.50;99.90;;;;;;4894026;29;20091;-82
2022/10/20 00:25:01;;;;;;;16.98;7.18;;;6.80;99.90;;;;;;4893352;29;20094;-82
2022/10/20 00:27:26;;;;;;;16.88;7.28;;;6.50;99.90;;;;;;4894051;29;20077;-82
2022/10/20 00:29:52;;;;;;;17.70;6.90;;;6.40;99.90;;;;;;4894113;29;20040;-82
2022/10/20 00:32:18;;;;;;;15.13;7.53;;;6.60;99.90;;;;;;4890006;29;20116;-82
2022/10/20 00:34:43;;;;;;;14.93;7.25;;;6.80;99.90;;;;;;4890450;29;20119;-82
2022/10/20 00:37:09;;;;;;;19.88;7.32;;;6.40;99.90;;;;;;4891411;29;20044;-82
2022/10/20 00:39:35;;;;;;;14.77;7.30;;;7.10;99.90;;;;;;4890246;29;20060;-82
2022/10/20 00:42:02;;;;;;;17.23;6.88;;;6.30;99.90;;;;;;4906521;29;20049;-82
2022/10/20 00:44:49;;;;;;;15.55;6.68;;;6.30;99.90;;;;;;4874965;29;20131;-82
2022/10/20 00:47:19;;;;;;;15.05;6.80;;;6.30;99.90;;;;;;4874879;29;20056;-82
2022/10/20 00:49:46;;;;;;;18.25;7.03;;;6.20;99.90;;;;;;4875258;29;20252;-82
2022/10/20 00:52:12;;;;;;;16.70;6.50;;;6.20;99.90;;;;;;4890367;29;20135;-82
2022/10/20 00:54:37;;;;;;;13.23;7.10;;;6.20;99.90;;;;;;4891600;29;20124;-82
2022/10/20 00:57:04;;;;;;;14.73;6.80;;;6.30;99.90;;;;;;4890792;29;20134;-82
2022/10/20 00:59:32;;;;;;;14.02;7.25;;;6.20;99.90;;;;;;4892721;29;20105;-82
2022/10/20 01:01:59;;;;;;;16.30;7.07;;;6.50;99.90;;;;;;4894280;29;20503;-82
2022/10/20 01:04:28;;;;;;;15.23;6.75;;;6.30;99.90;;;;;;4893533;29;20060;-82
2022/10/20 01:06:54;;;;;;;16.10;6.40;;;6.50;99.90;;;;;;4893543;29;20413;-82
2022/10/20 01:09:20;;;;;;;15.30;6.35;;;6.50;99.90;;;;;;4878791;29;20050;-82
2022/10/20 01:12:21;;;;;;;14.30;6.35;;;6.20;99.90;;;;;;4910207;29;20059;-83
2022/10/20 01:15:09;;;;;;;13.82;6.95;;;6.10;99.90;;;;;;4877809;29;20104;-82
2022/10/20 01:17:44;;;;;;;15.90;6.50;;;6.10;99.90;;;;;;4878137;29;20063;-82
2022/10/20 01:20:28;;;;;;;9.25;5.90;;;6.00;99.90;;;;;;4877912;29;20147;-82
2022/10/20 01:23:09;;;;;;;16.02;6.97;;;6.10;99.90;;;;;;4877578;29;20056;-82
2022/10/20 01:26:15;;;;;;;16.63;7.20;;;6.00;99.90;;;;;;4894033;29;20052;-82
2022/10/20 01:28:51;;;;;;;14.85;7.22;;;6.00;99.90;;;;;;4892586;29;20517;-82
2022/10/20 01:31:38;;;;;;;22.25;6.68;;;6.00;99.90;;;;;;4897375;29;20572;-82
2022/10/20 01:34:43;;;;;;;20.38;7.47;;;5.90;99.90;;;;;;4895590;29;20063;-82
2022/10/20 01:37:18;;;;;;;9.95;6.15;;;5.90;99.90;;;;;;4897154;29;20048;-82
2022/10/20 01:39:51;;;;;;;16.48;7.53;;;5.90;99.90;;;;;;4896826;29;20052;-82
2022/10/20 01:42:23;;;;;;;15.60;6.90;;;5.90;99.90;;;;;;4895924;29;20048;-82
2022/10/20 01:44:52;;;;;;;14.95;6.40;;;6.00;99.90;;;;;;4880976;29;20080;-82
2022/10/20 01:47:19;;;;;;;14.00;6.28;;;6.00;99.90;;;;;;4880836;29;20052;-82
2022/10/20 01:49:47;;;;;;;14.73;6.47;;;5.90;99.90;;;;;;4895933;29;20099;-83
2022/10/20 01:52:13;;;;;;;18.95;7.20;;;5.90;99.90;;;;;;4881390;29;20111;-82
2022/10/20 01:54:39;;;;;;;14.13;6.82;;;6.10;99.90;;;;;;4896151;29;20497;-82
2022/10/20 01:57:24;;;;;;;11.63;6.60;;;5.90;99.90;;;;;;4896601;29;20048;-82
2022/10/20 02:00:12;;;;;;;15.60;6.47;;;5.90;99.90;;;;;;4880348;29;20131;-82
2022/10/20 02:02:48;;;;;;;16.67;7.07;;;5.90;99.90;;;;;;4895661;29;20047;-82
2022/10/20 02:05:48;;;;;;;17.42;6.70;;;5.80;99.90;;;;;;4880825;29;20044;-82
2022/10/20 02:08:21;;;;;;;12.73;6.55;;;5.80;99.90;;;;;;4881503;29;20485;-82
2022/10/20 02:10:50;;;;;;;16.83;6.93;;;5.80;99.90;;;;;;4895409;29;20048;-82
2022/10/20 02:13:19;;;;;;;14.40;6.63;;;5.80;99.90;;;;;;4896117;29;20390;-82
2022/10/20 02:15:51;;;;;;;13.95;6.75;;;5.80;99.90;;;;;;4895593;29;20036;-82
2022/10/20 02:18:21;;;;;;;19.92;6.43;;;5.70;99.90;;;;;;4895695;29;20400;-82
2022/10/20 02:20:51;;;;;;;13.38;6.85;;;5.70;99.90;;;;;;4896000;29;20044;-82
2022/10/20 02:23:17;;;;;;;13.43;6.80;;;6.10;99.90;;;;;;4895593;29;20048;-82
2022/10/20 02:25:47;;;;;;;13.25;6.82;;;6.00;99.90;;;;;;4880484;29;20055;-82
2022/10/20 02:28:14;;;;;;;15.68;7.10;;;5.80;99.90;;;;;;4896245;29;20106;-82
2022/10/20 02:30:41;;;;;;;12.82;6.47;;;5.70;99.90;;;;;;4879818;29;20092;-82
2022/10/20 02:33:07;;;;;;;14.68;6.25;;;5.90;99.90;;;;;;4891927;29;20064;-82
2022/10/20 02:35:33;;;;;;;14.85;6.90;;;6.00;99.90;;;;;;4893310;29;20056;-82
2022/10/20 02:37:59;;;;;;;17.33;7.25;;;6.40;99.90;;;;;;4875966;29;20048;-82
2022/10/20 02:40:25;;;;;;;11.68;6.65;;;5.80;99.90;;;;;;4877858;29;20059;-82
2022/10/20 02:42:51;;;;;;;15.18;7.10;;;5.80;99.90;;;;;;4892544;29;20120;-82
2022/10/20 02:45:17;;;;;;;14.50;6.32;;;5.80;99.90;;;;;;4891750;29;20511;-82
2022/10/20 02:47:42;;;;;;;14.77;6.88;;;6.00;99.90;;;;;;4892247;29;20191;-82
2022/10/20 02:50:08;;;;;;;14.90;7.28;;;6.50;99.90;;;;;;4877222;29;20652;-82
2022/10/20 02:52:35;;;;;;;14.48;7.28;;;6.20;99.90;;;;;;4876573;29;20056;-82
2022/10/20 02:55:01;;;;;;;18.63;7.43;;;5.80;99.90;;;;;;4877014;29;20048;-82
2022/10/20 02:57:27;;;;;;;12.65;6.43;;;5.90;99.90;;;;;;4876546;29;20452;-82
2022/10/20 02:59:53;;;;;;;12.45;6.65;;;6.20;99.90;;;;;;4891410;29;20053;-82
2022/10/20 03:02:18;;;;;;;12.05;7.13;;;5.90;99.90;;;;;;4891829;29;20049;-82
2022/10/20 03:04:44;;;;;;;14.43;7.68;;;5.90;99.90;;;;;;4892181;29;20054;-82
2022/10/20 03:07:10;;;;;;;11.88;7.18;;;5.80;99.90;;;;;;4892204;29;20059;-82
2022/10/20 03:09:36;;;;;;;13.57;7.72;;;5.90;99.90;;;;;;4892387;29;20524;-82
2022/10/20 03:12:02;;;;;;;11.18;7.18;;;5.80;99.90;;;;;;4891212;29;20044;-82
2022/10/20 03:14:28;;;;;;;16.58;7.78;;;5.80;99.90;;;;;;4907901;29;20408;-82
2022/10/20 03:16:53;;;;;;;17.77;7.75;;;6.10;99.90;;;;;;4876340;29;20041;-82
2022/10/20 03:19:19;;;;;;;12.75;7.78;;;5.90;99.90;;;;;;4906619;29;20052;-82
2022/10/20 03:21:45;;;;;;;14.13;7.93;;;6.00;99.90;;;;;;4891299;29;20229;-82
2022/10/20 03:24:11;;;;;;;15.98;8.20;;;6.00;99.90;;;;;;4876532;29;20104;-82
2022/10/20 03:26:37;;;;;;;16.67;7.53;;;6.40;99.90;;;;;;4891396;29;20049;-82
2022/10/20 03:29:03;;;;;;;14.27;7.68;;;6.40;99.90;;;;;;4891578;29;20049;-82
2022/10/20 03:31:28;;;;;;;12.32;7.65;;;6.00;99.90;;;;;;4892204;29;20433;-82
2022/10/20 03:33:54;;;;;;;15.98;7.97;;;6.80;99.90;;;;;;4874137;29;20044;-82
2022/10/20 03:36:20;;;;;;;22.65;8.10;;;6.00;99.90;;;;;;4892359;29;20052;-82
2022/10/20 03:38:46;;;;;;;15.57;8.57;;;6.10;99.90;;;;;;4907208;29;20475;-82
2022/10/20 03:41:11;;;;;;;15.82;8.63;;;6.30;99.90;;;;;;4875809;29;20622;-82
2022/10/20 03:43:38;;;;;;;25.25;8.45;;;6.40;99.90;;;;;;4891821;29;20059;-82
2022/10/20 03:46:07;;;;;;;21.05;8.85;;;6.70;99.90;;;;;;4876576;29;20075;-82
2022/10/20 03:48:34;;;;;;;12.40;8.15;;;6.00;99.90;;;;;;4906092;29;20144;-82
2022/10/20 03:51:01;;;;;;;16.85;9.18;;;6.40;99.90;;;;;;4890857;29;20401;-82
2022/10/20 03:53:27;;;;;;;15.48;9.65;;;6.00;99.90;;;;;;4875865;29;20416;-82
2022/10/20 03:55:53;;;;;;;18.73;8.65;;;6.10;99.90;;;;;;4906508;29;20419;-82
2022/10/20 03:58:19;;;;;;;16.52;8.75;;;6.20;99.90;;;;;;4907436;29;20057;-82
2022/10/20 04:00:45;;;;;;;20.98;9.68;;;6.00;99.90;;;;;;4891191;29;20044;-82
2022/10/20 04:03:11;;;;;;;14.15;8.73;;;6.00;99.90;;;;;;4874710;29;20393;-82
2022/10/20 04:05:37;;;;;;;18.40;9.40;;;6.20;99.90;;;;;;4876247;29;20063;-82
2022/10/20 04:08:03;;;;;;;15.95;9.23;;;6.10;99.90;;;;;;4890734;29;20553;-82
2022/10/20 04:10:29;;;;;;;17.33;9.70;;;6.00;99.90;;;;;;4906935;29;20048;-82
2022/10/20 04:12:59;;;;;;;21.25;10.13;;;6.00;99.90;;;;;;4875712;29;20087;-82
2022/10/20 04:15:25;;;;;;;16.40;10.50;;;6.80;99.90;;;;;;4891510;29;20132;-82
2022/10/20 04:17:50;;;;;;;22.33;9.85;;;6.00;99.90;;;;;;4875430;29;20139;-82
2022/10/20 04:20:16;;;;;;;13.85;9.75;;;6.70;99.90;;;;;;4891809;29;20485;-82
2022/10/20 04:22:42;;;;;;;20.08;10.07;;;6.00;99.90;;;;;;4875231;29;20044;-82
2022/10/20 04:25:08;;;;;;;17.60;10.35;;;6.60;99.90;;;;;;4891358;29;20059;-82
2022/10/20 04:27:34;;;;;;;16.38;9.82;;;6.50;99.90;;;;;;4870566;29;20088;-81
2022/10/20 04:30:00;;;;;;;19.13;11.25;;;6.10;99.90;;;;;;4890724;29;20167;-81
2022/10/20 04:32:25;;;;;;;22.58;10.90;;;6.70;99.90;;;;;;4889882;29;20107;-82
2022/10/20 04:34:51;;;;;;;15.40;10.38;;;5.80;99.90;;;;;;4895646;29;20111;-81
2022/10/20 04:37:17;;;;;;;20.08;10.80;;;6.20;99.90;;;;;;4894281;29;20552;-81
2022/10/20 04:39:42;;;;;;;17.17;11.23;;;6.20;99.90;;;;;;4894945;29;20055;-81
2022/10/20 04:42:08;;;;;;;20.75;11.80;;;5.80;99.90;;;;;;4895184;29;20271;-81
2022/10/20 04:44:34;;;;;;;16.75;10.13;;;6.70;99.90;;;;;;4893805;29;20099;-81
2022/10/20 04:46:59;;;;;;;20.15;11.60;;;6.00;99.90;;;;;;4894406;29;20093;-82
2022/10/20 04:49:25;;;;;;;20.17;11.43;;;6.30;99.90;;;;;;4894413;29;20044;-82
2022/10/20 04:51:51;;;;;;;24.02;11.38;;;5.90;99.90;;;;;;4893804;29;20063;-82
2022/10/20 04:54:16;;;;;;;20.23;11.82;;;6.10;99.90;;;;;;4894967;29;20726;-82
2022/10/20 04:56:42;;;;;;;21.63;12.20;;;6.30;99.90;;;;;;4870072;29;20036;-81
2022/10/20 04:59:08;;;;;;;19.83;12.45;;;6.10;99.90;;;;;;4868248;29;20041;-82
2022/10/20 05:01:33;;;;;;;18.17;12.25;;;6.50;99.90;;;;;;4885498;29;20500;-82
2022/10/20 05:03:59;;;;;;;21.83;11.85;;;6.00;99.90;;;;;;4884233;29;20041;-81
2022/10/20 05:06:28;;;;;;;15.95;12.00;;;5.90;99.90;;;;;;4869994;29;20485;-81
2022/10/20 05:08:56;;;;;;;20.80;11.85;;;5.90;99.90;;;;;;4868248;29;20398;-82
2022/10/20 05:11:23;;;;;;;18.63;11.20;;;5.90;99.90;;;;;;4889630;29;20080;-81
2022/10/20 05:13:49;;;;;;;16.50;12.02;;;6.50;99.90;;;;;;4892937;29;20062;-82
2022/10/20 05:16:16;;;;;;;18.33;11.57;;;5.90;99.90;;;;;;4893070;29;20092;-81
2022/10/20 05:18:42;;;;;;;18.95;11.98;;;5.90;99.90;;;;;;4877879;29;20036;-82
2022/10/20 05:21:11;;;;;;;13.85;11.95;;;5.90;99.90;;;;;;4860234;29;20041;-82
2022/10/20 05:23:38;;;;;;;17.20;12.45;;;5.90;99.90;;;;;;4860010;29;20065;-82
2022/10/20 05:26:05;;;;;;;20.42;11.95;;;5.90;99.90;;;;;;4875130;29;20189;-82
2022/10/20 05:28:31;;;;;;;25.95;12.40;;;5.80;99.90;;;;;;4875742;29;20419;-82
2022/10/20 05:31:01;;;;;;;19.63;12.93;;;6.00;99.90;;;;;;4874678;29;20053;-82
2022/10/20 05:33:27;;;;;;;19.23;12.88;;;5.90;99.90;;;;;;4877648;29;20048;-82
2022/10/20 05:35:53;;;;;;;21.85;13.13;;;5.90;99.90;;;;;;4862116;29;20412;-82
2022/10/20 05:38:18;;;;;;;19.45;12.80;;;6.50;99.90;;;;;;4862882;29;20041;-82
2022/10/20 05:40:44;;;;;;;18.58;12.52;;;5.80;99.90;;;;;;4877374;29;20056;-82
2022/10/20 05:43:10;;;;;;;23.83;12.98;;;6.20;99.90;;;;;;4877889;29;20080;-81
2022/10/20 05:45:35;;;;;;;19.25;12.98;;;6.50;99.90;;;;;;4878160;29;20083;-82
2022/10/20 05:48:01;;;;;;;30.05;13.82;;;6.10;99.90;;;;;;4893372;29;20037;-81
2022/10/20 05:50:27;;;;;;;18.05;13.02;;;5.80;99.90;;;;;;4878665;29;20519;-81
2022/10/20 05:52:52;;;;;;;17.92;13.65;;;6.20;99.90;;;;;;4886160;29;20098;-81
2022/10/20 05:55:18;;;;;;;22.95;13.20;;;5.80;99.90;;;;;;4895952;29;20147;-82
2022/10/20 05:57:44;;;;;;;36.75;13.93;;;6.70;99.90;;;;;;4896623;29;20048;-81
2022/10/20 06:00:10;;;;;;;19.48;13.35;;;5.90;99.90;;;;;;4896763;29;20115;-82
2022/10/20 06:02:36;;;;;;;20.48;13.40;;;5.90;99.90;;;;;;4895410;29;20517;-82
2022/10/20 06:05:02;;;;;;;19.63;13.48;;;5.90;99.90;;;;;;4896270;29;20059;-81
2022/10/20 06:07:28;;;;;;;17.55;12.68;;;5.90;99.90;;;;;;4896473;29;20469;-81
2022/10/20 06:09:53;;;;;;;20.20;13.18;;;5.90;99.90;;;;;;4895699;29;20143;-82
2022/10/20 06:12:19;;;;;;;24.60;13.90;;;5.90;99.90;;;;;;4895760;29;20507;-82
2022/10/20 06:14:45;;;;;;;20.63;13.43;;;5.80;99.90;;;;;;4896360;29;20050;-82
2022/10/20 06:17:10;;;;;;;21.30;13.20;;;5.80;99.90;;;;;;4880321;29;20052;-82
2022/10/20 06:19:36;;;;;;;22.05;14.60;;;6.00;99.90;;;;;;4880339;29;20048;-82
2022/10/20 06:22:02;;;;;;;21.27;13.32;;;6.00;99.90;;;;;;4895100;29;20497;-81
2022/10/20 06:24:28;;;;;;;21.83;14.07;;;5.90;99.90;;;;;;4895861;29;20148;-82
2022/10/20 06:26:53;;;;;;;21.20;14.07;;;5.80;99.90;;;;;;4896064;29;20066;-82
2022/10/20 06:29:19;;;;;;;19.25;13.43;;;5.80;99.90;;;;;;4893910;29;20407;-82
2022/10/20 06:31:47;;;;;;;19.58;13.05;;;5.80;99.90;;;;;;4894910;29;20059;-82
2022/10/20 06:34:17;;;;;;;20.92;14.07;;;5.80;99.90;;;;;;4895596;29;20131;-82
2022/10/20 06:36:43;;;;;;;18.15;13.65;;;5.80;99.90;;;;;;4911908;29;20036;-82
2022/10/20 06:39:13;;;;;;;21.75;14.85;;;5.80;99.90;;;;;;4896074;29;20048;-82
2022/10/20 06:41:39;;;;;;;22.48;14.10;;;6.10;99.90;;;;;;4879894;29;20131;-82
2022/10/20 06:44:06;;;;;;;22.15;14.13;;;6.50;99.90;;;;;;4879520;29;20056;-82
2022/10/20 06:46:34;;;;;;;25.48;14.77;;;6.30;99.90;;;;;;4880441;29;20394;-82
2022/10/20 06:49:03;;;;;;;28.73;15.38;;;6.20;99.90;;;;;;4878969;29;20040;-82
2022/10/20 06:51:29;;;;;;;21.50;14.07;;;5.90;99.90;;;;;;4894969;29;20123;-82
2022/10/20 06:53:54;;;;;;;23.88;13.70;;;5.90;99.90;;;;;;4895164;29;20056;-82
2022/10/20 06:56:22;;;;;;;19.30;13.45;;;6.10;99.90;;;;;;4895157;29;20040;-82
2022/10/20 06:58:50;;;;;;;24.27;14.75;;;6.00;99.90;;;;;;4894167;29;20127;-82
2022/10/20 07:01:23;;;;;;;21.30;13.57;;;6.00;99.90;;;;;;4896268;29;20286;-82
2022/10/20 07:03:49;;;;;;;;;;;6.10;99.90;;;;;;4868597;29;20064;-82
2022/10/20 07:06:19;;;;;;;21.38;14.20;;;6.40;99.90;;;;;;4892247;29;20406;-82
2022/10/20 07:08:45;;;;;;;22.70;14.57;;;6.20;99.90;;;;;;4860748;29;20171;-82
2022/10/20 07:11:15;;;;;;;21.58;14.35;;;6.30;99.90;;;;;;4876306;29;20454;-82
2022/10/20 07:13:41;;;;;;;21.77;15.07;;;6.30;99.90;;;;;;4876438;29;20139;-82
2022/10/20 07:16:10;;;;;;;26.73;14.60;;;6.40;99.90;;;;;;4877166;29;20147;-82
2022/10/20 07:18:36;;;;;;;20.08;13.48;;;6.40;99.90;;;;;;4875107;29;20135;-83
2022/10/20 07:21:04;;;;;;;21.88;13.18;;;6.40;99.90;;;;;;4876275;29;20588;-82
2022/10/20 07:23:31;;;;;;;21.40;13.85;;;6.60;99.90;;;;;;4876307;29;20474;-82
2022/10/20 07:26:10;;;;;;;20.15;13.63;;;6.60;99.90;;;;;;4875894;29;20048;-82
2022/10/20 07:28:36;;;;;;;21.33;13.18;;;6.60;99.90;;;;;;4876820;29;20052;-82
2022/10/20 07:31:05;;;;;;;17.75;12.68;;;6.90;99.90;;;;;;4860839;29;20052;-82
2022/10/20 07:33:31;;;;;;;26.15;13.38;;;6.80;99.90;;;;;;4860187;29;20056;-83
2022/10/20 07:35:57;;;;;;;17.85;13.00;;;6.90;99.90;;;;;;4875649;29;20041;-82
2022/10/20 07:38:23;;;;;;;17.88;12.48;;;6.90;99.90;;;;;;4875228;29;20055;-82
2022/10/20 07:40:49;;;;;;;19.45;13.70;;;6.90;99.90;;;;;;4860172;29;20052;-82
2022/10/20 07:43:15;;;;;;;22.83;13.18;;;6.90;99.90;;;;;;4875808;29;20512;-82
2022/10/20 07:45:40;;;;;;;22.98;12.80;;;7.00;99.90;;;;;;4876162;29;20055;-82
2022/10/20 07:48:08;;;;;;;18.38;12.13;;;7.00;99.90;;;;;;4875042;29;20564;-82
2022/10/20 07:50:35;;;;;;;15.90;12.57;;;7.00;99.90;;;;;;4860946;29;20052;-82
2022/10/20 07:53:00;;;;;;;20.58;12.98;;;7.00;99.90;;;;;;4868825;29;20048;-82
2022/10/20 07:55:26;;;;;;;21.05;12.85;;;7.30;99.90;;;;;;4878436;29;20052;-82
2022/10/20 07:57:52;;;;;;;19.92;12.02;;;7.60;99.90;;;;;;4878645;29;20036;-82
2022/10/20 08:00:18;;;;;;;18.30;11.85;;;7.20;99.90;;;;;;4894945;29;20160;-82
2022/10/20 08:02:45;;;;;;;17.23;12.40;;;7.20;99.90;;;;;;4892616;29;20048;-82
2022/10/20 08:05:11;;;;;;;19.08;12.52;;;7.30;99.90;;;;;;4894905;29;20083;-82
2022/10/20 08:07:38;;;;;;;15.13;12.25;;;7.30;99.90;;;;;;4893640;29;20048;-82
2022/10/20 08:10:05;;;;;;;19.40;11.98;;;7.30;99.90;;;;;;4895046;29;20079;-82
2022/10/20 08:12:31;;;;;;;19.77;12.35;;;7.30;99.90;;;;;;4894209;29;20044;-82
2022/10/20 08:14:57;;;;;;;21.48;11.80;;;7.40;99.90;;;;;;4893583;29;20048;-82
2022/10/20 08:17:23;;;;;;;20.55;12.05;;;7.40;99.90;;;;;;4878613;29;20047;-82
2022/10/20 08:19:48;;;;;;;15.20;11.20;;;7.50;99.90;;;;;;4893799;29;20051;-82
2022/10/20 08:22:15;;;;;;;17.65;12.75;;;7.80;99.90;;;;;;4893806;29;20085;-82
2022/10/20 08:24:40;;;;;;;15.43;11.07;;;7.70;99.90;;;;;;4894088;29;20044;-82
2022/10/20 08:27:06;;;;;;;14.85;10.48;;;7.70;99.90;;;;;;4894475;29;20056;-82
2022/10/20 08:29:32;;;;;;;17.77;11.77;;;7.70;99.90;;;;;;4878398;29;20058;-82
2022/10/20 08:31:58;;;;;;;14.30;10.82;;;7.80;99.90;;;;;;4893540;29;20052;-82
2022/10/20 08:34:24;;;;;;;21.55;11.98;;;7.90;99.90;;;;;;4894030;29;20405;-82
2022/10/20 08:36:49;;;;;;;19.05;11.27;;;8.00;99.90;;;;;;4893173;29;20128;-82
2022/10/20 08:39:15;;;;;;;19.52;10.93;;;8.10;99.90;;;;;;4894800;29;20138;-82
2022/10/20 08:41:44;;;;;;;15.80;10.77;;;8.10;99.90;;;;;;4912448;29;20044;-82
2022/10/20 08:44:18;;;;;;;16.02;10.75;;;8.30;99.90;;;;;;4912200;29;20067;-82
2022/10/20 08:46:44;;;;;;;16.83;11.02;;;8.20;99.90;;;;;;4912510;29;20050;-82
2022/10/20 08:49:20;;;;;;;27.73;11.55;;;8.30;99.90;;;;;;4896768;29;20051;-82
2022/10/20 08:51:46;;;;;;;16.88;10.27;;;8.40;99.90;;;;;;4911725;29;20067;-82
2022/10/20 08:54:15;;;;;;;18.73;10.82;;;8.40;99.90;;;;;;4913311;29;20040;-82
2022/10/20 08:56:43;;;;;;;13.57;10.13;;;8.50;99.90;;;;;;4911696;29;20047;-82
2022/10/20 08:59:28;;;;;;;15.88;9.70;;;8.60;99.90;;;;;;4913160;29;20131;-82
2022/10/20 09:01:55;;;;;;;17.65;10.70;;;8.60;99.90;;;;;;4912735;29;20504;-82
2022/10/20 09:04:26;;;;;;;14.07;10.52;;;8.70;99.90;;;;;;4911146;29;20055;-82
2022/10/20 09:06:58;;;;;;;16.08;10.40;;;8.80;99.90;;;;;;4897286;29;20058;-82
2022/10/20 09:09:24;;;;;;;16.15;9.50;;;8.80;99.90;;;;;;4897560;29;20404;-82
2022/10/20 09:11:51;;;;;;;13.95;10.15;;;9.00;99.90;;;;;;4896501;29;20764;-83
2022/10/20 09:14:16;;;;;;;20.73;10.70;;;9.00;99.90;;;;;;4896791;29;20054;-81
2022/10/20 09:16:45;;;;;;;18.63;8.57;;;9.10;99.90;;;;;;4878677;29;20136;-82
2022/10/20 09:19:17;;;;;;;13.70;8.90;;;9.20;99.90;;;;;;4892686;29;20048;-82
2022/10/20 09:21:45;;;;;;;12.65;9.13;;;9.30;99.90;;;;;;4897325;29;20056;-82
2022/10/20 09:24:11;;;;;;;14.07;9.00;;;9.40;99.90;;;;;;4896940;29;20044;-81
2022/10/20 09:26:44;;;;;;;17.38;9.25;;;9.40;99.90;;;;;;4881649;29;20119;-81
2022/10/20 09:29:11;;;;;;;;;;;9.40;99.90;;;;;;4897378;29;20051;-82
2022/10/20 09:31:38;;;;;;;13.80;8.85;;;9.50;99.90;;;;;;4897381;29;19927;-82
2022/10/20 09:34:28;;;;;;;14.85;8.95;;;9.50;99.90;;;;;;4895705;29;20401;-82
2022/10/20 09:37:02;;;;;;;13.07;8.70;;;9.50;99.90;;;;;;4881409;29;20497;-82
2022/10/20 09:39:31;;;;;;;12.00;7.45;;;9.50;99.90;;;;;;4896014;29;20051;-82
2022/10/20 09:42:04;;;;;;;14.13;8.02;;;9.60;99.90;;;;;;4896635;29;20056;-81
2022/10/20 09:44:34;;;;;;;15.45;9.32;;;9.70;99.90;;;;;;4896836;29;20055;-82
2022/10/20 09:47:01;;;;;;;13.05;8.18;;;9.70;99.90;;;;;;4880518;29;20040;-82
2022/10/20 09:49:32;;;;;;;13.00;8.23;;;9.90;99.90;;;;;;4880708;29;20056;-82
2022/10/20 09:52:00;;;;;;;18.63;8.30;;;9.90;99.90;;;;;;4896734;29;20138;-82
2022/10/20 09:54:26;;;;;;;12.15;8.20;;;9.90;99.90;;;;;;4896410;29;20193;-82
2022/10/20 09:56:52;;;;;;;14.30;8.00;;;9.90;99.90;;;;;;4896580;29;20071;-81
2022/10/20 09:59:32;;;;;;;13.98;8.48;;;10.00;99.90;;;;;;4896539;29;20445;-82
2022/10/20 10:02:01;;;;;;;14.32;8.10;;;10.10;99.90;;;;;;4879546;29;20417;-82
2022/10/20 10:04:34;;;;;;;15.52;8.23;;;10.10;99.90;;;;;;4879731;29;20055;-82
2022/10/20 10:07:00;;;;;;;16.65;7.47;;;10.20;99.90;;;;;;4895008;29;20059;-82
2022/10/20 10:09:35;;;;;;;12.30;6.82;;;10.30;99.90;;;;;;4881538;29;20537;-82
2022/10/20 10:12:03;;;;;;;14.07;7.50;;;10.30;99.90;;;;;;4896482;29;20063;-82
2022/10/20 10:14:32;;;;;;;14.35;7.38;;;10.40;99.90;;;;;;4896089;29;20083;-82
2022/10/20 10:16:58;;;;;;;15.25;7.30;;;10.50;99.90;;;;;;4881217;29;20048;-82
2022/10/20 10:19:30;;;;;;;13.70;6.95;;;10.80;99.90;;;;;;4895844;29;20075;-82
2022/10/20 10:21:58;;;;;;;14.93;7.40;;;10.70;99.90;;;;;;4879939;29;20484;-82
2022/10/20 10:24:38;;;;;;;13.93;6.68;;;10.80;99.90;;;;;;4896220;29;20063;-82
2022/10/20 10:27:18;;;;;;;15.23;7.32;;;10.90;99.90;;;;;;4896530;29;20103;-82
2022/10/20 10:29:44;;;;;;;16.17;6.60;;;10.90;99.90;;;;;;4879962;29;20464;-82
2022/10/20 10:32:21;;;;;;;10.85;6.80;;;11.00;99.90;;;;;;4894306;29;20055;-82
2022/10/20 10:34:53;;;;;;;11.98;7.05;;;11.10;99.90;;;;;;4895671;29;20115;-82
2022/10/20 10:37:19;;;;;;;12.18;6.85;;;11.10;99.90;;;;;;4879971;29;20131;-82
2022/10/20 10:39:45;;;;;;;11.30;6.80;;;11.20;99.90;;;;;;4901960;29;20555;-82
2022/10/20 10:42:23;;;;;;;10.73;6.55;;;11.30;99.90;;;;;;4914356;29;20404;-81
2022/10/20 10:44:52;;;;;;;10.18;6.13;;;11.40;99.90;;;;;;4914371;29;20083;-82
2022/10/20 10:47:33;;;;;;;10.20;6.30;;;11.40;99.90;;;;;;4931698;29;20083;-82
2022/10/20 10:50:24;;;;;;;10.05;5.93;;;11.50;99.90;;;;;;4914032;29;20047;-82
2022/10/20 10:53:01;;;;;;;8.32;5.70;;;11.50;99.90;;;;;;4913548;29;20055;-82
2022/10/20 10:55:38;;;;;;;13.13;7.18;;;11.60;99.90;;;;;;4899210;29;20047;-82
2022/10/20 10:58:20;;;;;;;11.63;6.40;;;11.60;99.90;;;;;;4914318;29;20047;-82
2022/10/20 11:00:55;;;;;;;11.38;5.63;;;11.60;99.90;;;;;;4914222;29;20059;-82
2022/10/20 11:03:29;;;;;;;14.20;6.07;;;11.60;99.90;;;;;;4897280;29;20048;-81
2022/10/20 11:06:17;;;;;;;12.52;6.00;;;11.70;99.90;;;;;;4898193;29;20055;-82
2022/10/20 11:08:53;;;;;;;10.18;6.13;;;11.90;99.90;;;;;;4898117;29;20098;-81
2022/10/20 11:11:28;;;;;;;10.90;6.15;;;12.00;99.90;;;;;;4930864;29;20066;-81
2022/10/20 11:14:16;;;;;;;21.77;6.25;;;12.10;99.90;;;;;;4897994;29;20576;-82
2022/10/20 11:17:10;;;;;;;11.93;6.38;;;12.20;99.90;;;;;;4897447;29;20059;-82
2022/10/20 11:19:59;;;;;;;8.82;5.70;;;12.30;99.90;;;;;;4894370;29;20519;-82
2022/10/20 11:22:31;;;;;;;10.32;6.20;;;12.40;99.90;;;;;;4895485;29;20076;-82
2022/10/20 11:24:59;;;;;;;14.85;6.80;;;12.60;99.90;;;;;;4909822;29;20506;-81
2022/10/20 11:27:29;;;;;;;13.82;5.97;;;12.60;99.90;;;;;;4895570;29;20151;-82
2022/10/20 11:30:19;;;;;;;9.10;5.82;;;12.60;99.90;;;;;;4894672;29;20095;-82
2022/10/20 11:33:03;;;;;;;13.00;6.15;;;12.70;99.90;;;;;;4874294;29;20092;-81
2022/10/20 11:35:37;;;;;;;17.23;6.07;;;12.70;99.90;;;;;;4892142;29;20048;-81
2022/10/20 11:38:19;;;;;;;9.32;6.47;;;12.70;99.90;;;;;;4891219;29;20410;-81
2022/10/20 11:40:53;;;;;;;11.40;6.40;;;12.70;99.90;;;;;;4891568;29;20059;-83
2022/10/20 11:43:26;;;;;;;11.80;6.63;;;12.70;99.90;;;;;;4875582;29;20052;-82
2022/10/20 11:45:54;;;;;;;;;;;12.60;99.90;;;;;;4875856;29;20108;-82
2022/10/20 11:48:39;;;;;;;17.08;6.57;;;12.60;99.90;;;;;;4891347;29;19970;-82
2022/10/20 11:51:44;;;;;;;15.75;6.90;;;12.50;99.90;;;;;;4876466;29;20041;-82
2022/10/20 11:54:23;;;;;;;11.02;6.68;;;12.60;99.90;;;;;;4890479;29;20054;-82
2022/10/20 11:57:02;;;;;;;17.42;6.78;;;12.60;99.90;;;;;;4891017;29;20130;-82
2022/10/20 11:59:47;;;;;;;13.63;7.03;;;12.60;99.90;;;;;;4875797;29;20151;-82
2022/10/20 12:02:37;;;;;;;9.25;6.53;;;12.70;99.90;;;;;;4875650;29;20080;-82
2022/10/20 12:05:32;;;;;;;10.90;6.90;;;12.70;99.90;;;;;;4875640;29;20053;-82
2022/10/20 12:08:20;;;;;;;12.13;6.88;;;12.80;99.90;;;;;;4890275;29;20161;-83
2022/10/20 12:10:55;;;;;;;13.52;6.90;;;12.80;99.90;;;;;;4890881;29;20147;-82
2022/10/20 12:13:57;;;;;;;15.32;6.68;;;12.80;99.90;;;;;;4891559;29;20045;-82
2022/10/20 12:16:50;;;;;;;12.40;6.85;;;12.80;99.90;;;;;;4891542;29;20041;-81
2022/10/20 12:19:19;;;;;;;10.77;6.80;;;12.80;99.90;;;;;;4875066;29;20048;-84
2022/10/20 12:22:05;;;;;;;12.07;7.03;;;12.80;99.90;;;;;;4890725;29;20048;-82
2022/10/20 12:24:38;;;;;;;12.18;6.82;;;12.80;99.90;;;;;;4891231;29;20415;-84
2022/10/20 12:27:08;;;;;;;16.40;6.95;;;12.70;99.90;;;;;;4876295;29;20727;-84
2022/10/20 12:29:33;;;;;;;16.20;7.15;;;12.70;99.90;;;;;;4875390;29;20052;-84
2022/10/20 12:32:23;;;;;;;10.93;6.65;;;12.70;99.90;;;;;;4874909;29;20061;-83
2022/10/20 12:34:53;;;;;;;13.98;6.95;;;12.60;99.90;;;;;;4890470;29;20151;-84
2022/10/20 12:37:24;;;;;;;11.02;7.10;;;12.60;99.90;;;;;;4875497;29;20059;-83
2022/10/20 12:39:53;;;;;;;9.80;6.88;;;12.60;99.90;;;;;;4875680;29;20060;-84
2022/10/20 12:42:27;;;;;;;11.13;7.60;;;12.60;99.90;;;;;;4890156;29;20055;-84
2022/10/20 12:44:53;;;;;;;12.57;7.28;;;12.50;99.90;;;;;;4890594;29;20180;-85
2022/10/20 12:47:25;;;;;;;15.68;7.57;;;12.50;99.90;;;;;;4875105;29;20071;-84
2022/10/20 12:50:04;;;;;;;14.07;8.03;;;12.50;99.90;;;;;;4890264;29;20063;-83
2022/10/20 12:52:37;;;;;;;14.20;7.32;;;12.40;99.90;;;;;;4875375;29;20293;-83
2022/10/20 12:55:12;;;;;;;;;;;12.40;99.90;;;;;;4877323;29;20083;-84
2022/10/20 12:57:40;;;;;;;13.13;7.32;;;12.30;99.90;;;;;;4894145;29;19923;-85